Time;durP1;ratioP1;P1;durP2;ratioP2;P2;SDS_P1;SDS_P2;PMS_P1;PMS_P2;Temp;Humidity;BMP_temperature;BMP_pressure;BME280_temperature;BME280_humidity;BME280_pressure;Samples;Min_cycle;Max_cycle;Signal;HPM_P1;HPM_P2
2023/03/20 00:01:38;;;;;;;140.73;95.25;;;9.40;99.90;;;;;;4972887;28;20022;-78
2023/03/20 00:04:04;;;;;;;152.50;98.60;;;9.40;99.90;;;;;;4973681;28;20041;-77
2023/03/20 00:06:31;;;;;;;150.57;103.10;;;9.40;99.90;;;;;;4973821;28;20065;-77
2023/03/20 00:08:57;;;;;;;146.68;98.03;;;9.40;99.90;;;;;;4973265;28;20025;-78
2023/03/20 00:11:27;;;;;;;140.30;91.45;;;9.40;99.90;;;;;;4968025;28;20023;-78
2023/03/20 00:14:05;;;;;;;132.45;88.10;;;9.30;99.90;;;;;;4972049;28;20050;-77
2023/03/20 00:16:43;;;;;;;149.82;97.38;;;9.20;99.90;;;;;;4973798;28;20495;-78
2023/03/20 00:19:22;;;;;;;138.52;90.22;;;9.30;99.90;;;;;;4973345;28;20027;-75
2023/03/20 00:21:49;;;;;;;123.38;88.38;;;9.30;99.90;;;;;;4966414;28;20034;-77
2023/03/20 00:24:15;;;;;;;134.23;90.53;;;9.30;99.90;;;;;;4964259;28;20066;-76
2023/03/20 00:26:43;;;;;;;151.00;100.45;;;9.20;99.90;;;;;;4970323;28;20022;-78
2023/03/20 00:29:17;;;;;;;149.52;107.43;;;9.30;99.90;;;;;;4973470;28;20023;-77
2023/03/20 00:31:43;;;;;;;148.13;96.38;;;9.20;99.90;;;;;;4961240;28;20039;-78
2023/03/20 00:34:13;;;;;;;142.90;100.13;;;9.20;99.90;;;;;;4973477;28;20074;-78
2023/03/20 00:36:39;;;;;;;137.68;90.75;;;9.30;99.90;;;;;;4988286;28;20103;-78
2023/03/20 00:39:06;;;;;;;128.30;92.57;;;9.20;99.90;;;;;;4961913;28;20046;-78
2023/03/20 00:41:48;;;;;;;134.30;91.80;;;9.20;99.90;;;;;;4963521;28;20024;-77
2023/03/20 00:44:43;;;;;;;129.07;89.85;;;9.30;99.90;;;;;;4967273;28;20066;-77
2023/03/20 00:47:15;;;;;;;137.27;91.95;;;9.20;99.90;;;;;;4979543;28;20062;-76
2023/03/20 00:49:42;;;;;;;162.88;104.30;;;9.20;99.90;;;;;;4966452;28;20376;-76
2023/03/20 00:52:11;;;;;;;144.70;96.07;;;9.30;99.90;;;;;;4964564;28;20042;-78
2023/03/20 00:54:37;;;;;;;149.10;95.75;;;9.20;99.90;;;;;;4955866;28;20077;-75
2023/03/20 00:57:15;;;;;;;136.52;95.57;;;9.20;99.90;;;;;;4955946;28;20470;-76
2023/03/20 00:59:52;;;;;;;141.20;93.95;;;9.10;99.90;;;;;;4969222;28;20035;-79
2023/03/20 01:02:20;;;;;;;131.07;89.53;;;9.10;99.90;;;;;;4972965;28;20027;-76
2023/03/20 01:04:47;;;;;;;130.07;90.97;;;9.10;99.90;;;;;;4973291;28;20058;-74
2023/03/20 01:07:15;;;;;;;136.65;88.57;;;9.20;99.90;;;;;;4973091;28;20034;-74
2023/03/20 01:09:41;;;;;;;136.07;93.32;;;9.00;99.90;;;;;;4967184;28;20546;-75
2023/03/20 01:12:09;;;;;;;152.98;101.15;;;9.00;99.90;;;;;;4964704;28;20026;-76
2023/03/20 01:14:35;;;;;;;138.60;97.78;;;9.00;99.90;;;;;;4959398;28;20051;-76
2023/03/20 01:17:01;;;;;;;122.85;86.95;;;9.00;99.90;;;;;;4972524;28;20023;-76
2023/03/20 01:19:26;;;;;;;134.57;92.55;;;8.90;99.90;;;;;;4961693;28;20047;-76
2023/03/20 01:21:52;;;;;;;127.70;87.88;;;8.80;99.90;;;;;;4967833;28;20046;-76
2023/03/20 01:24:18;;;;;;;120.50;85.80;;;8.80;99.90;;;;;;4992575;28;20459;-76
2023/03/20 01:26:45;;;;;;;132.70;88.78;;;8.50;99.90;;;;;;4975140;28;20066;-77
2023/03/20 01:29:21;;;;;;;132.00;86.28;;;8.40;99.90;;;;;;4978413;28;20019;-77
2023/03/20 01:31:47;;;;;;;126.60;87.25;;;8.30;99.90;;;;;;4954724;28;20484;-76
2023/03/20 01:34:15;;;;;;;123.07;82.50;;;8.30;99.90;;;;;;4971849;28;20379;-78
2023/03/20 01:36:47;;;;;;;108.65;77.63;;;8.30;99.90;;;;;;4972800;28;20062;-77
2023/03/20 01:39:14;;;;;;;111.15;76.10;;;8.20;99.90;;;;;;4971226;28;20113;-78
2023/03/20 01:41:40;;;;;;;112.82;73.47;;;8.10;99.90;;;;;;4962171;28;20030;-77
2023/03/20 01:44:22;;;;;;;105.70;73.80;;;8.00;99.90;;;;;;4958783;28;20454;-78
2023/03/20 01:46:54;;;;;;;112.65;73.57;;;7.90;99.90;;;;;;4974991;28;20034;-78
2023/03/20 01:49:20;;;;;;;111.68;73.68;;;7.80;99.90;;;;;;4976605;28;20410;-78
2023/03/20 01:51:49;;;;;;;100.30;70.95;;;7.90;99.90;;;;;;4958861;28;20019;-78
2023/03/20 01:54:21;;;;;;;103.63;69.45;;;7.90;99.90;;;;;;4959012;28;20379;-79
2023/03/20 01:57:03;;;;;;;103.10;71.43;;;7.90;99.90;;;;;;4949820;28;20427;-76
2023/03/20 01:59:54;;;;;;;108.60;70.45;;;7.80;99.90;;;;;;4964724;28;20185;-78
2023/03/20 02:02:27;;;;;;;95.50;67.88;;;7.90;99.90;;;;;;4958461;28;20022;-76
2023/03/20 02:05:03;;;;;;;98.10;67.30;;;7.90;99.90;;;;;;4974301;28;20484;-76
2023/03/20 02:07:31;;;;;;;98.50;67.57;;;7.90;99.90;;;;;;4977176;28;20030;-77
2023/03/20 02:10:02;;;;;;;97.07;67.22;;;8.00;99.90;;;;;;4959301;28;20123;-76
2023/03/20 02:12:58;;;;;;;87.28;64.15;;;8.00;99.90;;;;;;4918302;29;20443;-76
2023/03/20 02:15:30;;;;;;;90.72;64.20;;;8.00;99.90;;;;;;4933825;29;20168;-76
2023/03/20 02:18:19;;;;;;;91.30;63.22;;;7.90;99.90;;;;;;4934655;29;20047;-75
2023/03/20 02:21:16;;;;;;;90.70;65.53;;;7.80;99.90;;;;;;4928499;29;20054;-75
2023/03/20 02:24:15;;;;;;;94.15;64.82;;;7.80;99.90;;;;;;4919261;29;20574;-76
2023/03/20 02:27:13;;;;;;;99.72;66.32;;;7.80;99.90;;;;;;4921737;29;20168;-78
2023/03/20 02:30:13;;;;;;;96.30;64.97;;;7.80;99.90;;;;;;4917845;29;20040;-76
2023/03/20 02:32:56;;;;;;;95.65;66.65;;;7.70;99.90;;;;;;4922437;29;20039;-75
2023/03/20 02:35:32;;;;;;;90.95;63.85;;;7.70;99.90;;;;;;4889824;29;20060;-77
2023/03/20 02:38:24;;;;;;;90.82;62.83;;;7.70;99.90;;;;;;4922366;29;20032;-76
2023/03/20 02:41:05;;;;;;;101.20;67.32;;;7.70;99.90;;;;;;4917710;29;20075;-76
2023/03/20 02:43:58;;;;;;;107.07;77.63;;;7.80;99.90;;;;;;4918630;29;20043;-76
2023/03/20 02:46:50;;;;;;;121.28;80.07;;;7.70;99.90;;;;;;4905065;29;20083;-74
2023/03/20 02:49:33;;;;;;;112.85;83.00;;;7.70;99.90;;;;;;4944406;28;20046;-76
2023/03/20 02:52:09;;;;;;;117.32;81.30;;;7.70;99.90;;;;;;4963714;28;20029;-75
2023/03/20 02:54:40;;;;;;;118.47;80.25;;;7.70;99.90;;;;;;4974022;28;20035;-75
2023/03/20 02:57:16;;;;;;;105.57;75.47;;;7.80;99.90;;;;;;4973957;28;20031;-78
2023/03/20 02:59:56;;;;;;;104.63;73.65;;;7.90;99.90;;;;;;4966150;28;20038;-78
2023/03/20 03:02:36;;;;;;;100.03;70.68;;;7.90;99.90;;;;;;4958105;28;20029;-77
2023/03/20 03:05:17;;;;;;;97.55;67.35;;;8.00;99.90;;;;;;4957713;28;20062;-77
2023/03/20 03:07:49;;;;;;;97.75;67.53;;;7.90;99.90;;;;;;4953988;28;20126;-77
2023/03/20 03:10:21;;;;;;;93.35;65.88;;;7.90;99.90;;;;;;4974762;28;20023;-76
2023/03/20 03:12:50;;;;;;;88.73;62.00;;;7.80;99.90;;;;;;4972728;28;20030;-77
2023/03/20 03:15:25;;;;;;;90.15;62.92;;;7.80;99.90;;;;;;4974431;28;20125;-77
2023/03/20 03:17:52;;;;;;;86.13;61.13;;;7.80;99.90;;;;;;4957463;28;20031;-77
2023/03/20 03:20:23;;;;;;;81.85;57.42;;;7.80;99.90;;;;;;4957267;28;20034;-78
2023/03/20 03:22:49;;;;;;;86.22;56.50;;;7.70;99.90;;;;;;4966502;28;20069;-78
2023/03/20 03:25:15;;;;;;;74.50;53.67;;;7.80;99.90;;;;;;4957588;28;20121;-77
2023/03/20 03:27:46;;;;;;;74.60;53.63;;;7.70;99.90;;;;;;4973190;28;20033;-78
2023/03/20 03:30:23;;;;;;;66.18;49.75;;;7.70;99.90;;;;;;4957786;28;20042;-78
2023/03/20 03:33:00;;;;;;;71.55;48.78;;;7.80;99.90;;;;;;4971454;28;20018;-78
2023/03/20 03:35:26;;;;;;;70.03;48.60;;;7.70;99.90;;;;;;4960287;28;20117;-79
2023/03/20 03:38:03;;;;;;;63.13;46.45;;;7.80;99.90;;;;;;4989098;28;20050;-78
2023/03/20 03:40:53;;;;;;;65.03;44.70;;;7.80;99.90;;;;;;4974096;28;20490;-77
2023/03/20 03:43:40;;;;;;;63.67;44.65;;;7.80;99.90;;;;;;4972741;28;20044;-79
2023/03/20 03:46:12;;;;;;;67.07;42.70;;;7.80;99.90;;;;;;4952604;28;20034;-78
2023/03/20 03:48:44;;;;;;;63.88;42.70;;;7.90;99.90;;;;;;4956912;28;20113;-77
2023/03/20 03:51:15;;;;;;;55.93;39.33;;;7.90;99.90;;;;;;4972727;28;20035;-77
2023/03/20 03:53:59;;;;;;;55.53;38.83;;;7.90;99.90;;;;;;4972789;28;20288;-76
2023/03/20 03:56:28;;;;;;;55.65;37.63;;;7.90;99.90;;;;;;4972317;28;20027;-77
2023/03/20 03:59:00;;;;;;;52.67;36.35;;;7.90;99.90;;;;;;4956710;28;20388;-77
2023/03/20 04:01:28;;;;;;;49.90;34.92;;;7.90;99.90;;;;;;4969619;28;20439;-77
2023/03/20 04:04:02;;;;;;;51.97;35.53;;;8.00;99.90;;;;;;4954244;28;20031;-77
2023/03/20 04:06:28;;;;;;;55.80;36.75;;;8.00;99.90;;;;;;4964607;28;20027;-77
2023/03/20 04:08:54;;;;;;;48.10;35.15;;;8.00;99.90;;;;;;4973471;28;20049;-76
2023/03/20 04:11:27;;;;;;;50.67;36.85;;;8.10;99.90;;;;;;4974266;28;20060;-76
2023/03/20 04:13:53;;;;;;;51.75;34.22;;;8.00;99.90;;;;;;4970276;28;20078;-77
2023/03/20 04:16:22;;;;;;;51.95;35.60;;;8.10;99.90;;;;;;4971559;28;20117;-77
2023/03/20 04:18:49;;;;;;;52.42;35.60;;;8.00;99.90;;;;;;4972773;28;20041;-77
2023/03/20 04:21:16;;;;;;;52.25;34.70;;;8.10;99.90;;;;;;4973821;28;20038;-77
2023/03/20 04:23:43;;;;;;;52.85;32.67;;;8.10;99.90;;;;;;4956500;28;20085;-77
2023/03/20 04:26:09;;;;;;;42.97;31.73;;;8.00;99.90;;;;;;4948898;28;20023;-77
2023/03/20 04:28:35;;;;;;;45.72;32.72;;;8.00;99.90;;;;;;4971314;28;20595;-77
2023/03/20 04:31:20;;;;;;;43.65;29.70;;;7.90;99.90;;;;;;4992889;28;20098;-75
2023/03/20 04:34:06;;;;;;;39.95;28.05;;;8.00;99.90;;;;;;4955372;28;20039;-76
2023/03/20 04:36:50;;;;;;;39.92;27.02;;;8.00;99.90;;;;;;4972355;28;20030;-77
2023/03/20 04:39:17;;;;;;;40.60;27.90;;;8.00;99.90;;;;;;4975534;28;20038;-77
2023/03/20 04:41:43;;;;;;;41.80;25.00;;;8.10;99.90;;;;;;4975312;28;20034;-78
2023/03/20 04:44:10;;;;;;;37.58;26.50;;;8.10;99.90;;;;;;4993237;28;20458;-77
2023/03/20 04:46:36;;;;;;;43.75;25.15;;;8.10;99.90;;;;;;4966216;28;20031;-76
2023/03/20 04:49:07;;;;;;;41.03;26.45;;;8.20;99.90;;;;;;4955898;28;20026;-76
2023/03/20 04:51:33;;;;;;;36.95;25.75;;;8.30;99.90;;;;;;4955980;28;20435;-77
2023/03/20 04:53:59;;;;;;;34.67;23.08;;;8.30;99.90;;;;;;4971310;28;20034;-76
2023/03/20 04:56:25;;;;;;;32.35;20.38;;;8.40;99.90;;;;;;4955851;28;20030;-78
2023/03/20 04:58:54;;;;;;;32.83;20.10;;;8.50;99.90;;;;;;4948423;28;20477;-77
2023/03/20 05:01:22;;;;;;;30.85;19.05;;;8.50;99.90;;;;;;4954306;28;20027;-77
2023/03/20 05:03:48;;;;;;;27.77;18.55;;;8.70;99.90;;;;;;4971859;28;20042;-77
2023/03/20 05:06:14;;;;;;;29.77;18.00;;;8.80;99.90;;;;;;4952794;29;20530;-78
2023/03/20 05:08:42;;;;;;;26.45;17.23;;;8.90;99.90;;;;;;4953861;28;20355;-77
2023/03/20 05:11:08;;;;;;;29.92;16.92;;;9.00;99.90;;;;;;4971896;28;20046;-77
2023/03/20 05:14:04;;;;;;;27.63;16.15;;;9.20;99.90;;;;;;4923849;29;20036;-78
2023/03/20 05:16:29;;;;;;;24.85;15.98;;;9.40;99.90;;;;;;4913923;29;20448;-77
2023/03/20 05:19:20;;;;;;;27.73;16.85;;;9.50;99.90;;;;;;4915313;29;20035;-76
2023/03/20 05:22:09;;;;;;;27.45;16.48;;;9.60;99.90;;;;;;4920130;29;20024;-77
2023/03/20 05:24:59;;;;;;;22.05;15.07;;;9.80;99.90;;;;;;4928366;29;20130;-77
2023/03/20 05:27:31;;;;;;;24.83;15.80;;;9.90;99.90;;;;;;4918081;29;20397;-75
2023/03/20 05:30:23;;;;;;;25.00;14.95;;;9.90;99.90;;;;;;4907163;29;20389;-75
2023/03/20 05:33:09;;;;;;;29.23;17.52;;;10.10;99.90;;;;;;4832548;29;20507;-76
2023/03/20 05:35:51;;;;;;;26.85;14.68;;;10.20;99.90;;;;;;4842312;29;20034;-72
2023/03/20 05:38:31;;;;;;;25.83;15.45;;;10.40;99.90;;;;;;4813300;29;20042;-79
2023/03/20 05:41:08;;;;;;;28.92;16.30;;;10.40;99.90;;;;;;4798159;29;20066;-78
2023/03/20 05:44:00;;;;;;;30.42;16.42;;;10.60;99.90;;;;;;4822323;29;20045;-73
2023/03/20 05:46:48;;;;;;;22.52;16.40;;;10.70;99.90;;;;;;4825080;29;20455;-74
2023/03/20 05:49:26;;;;;;;25.80;16.35;;;10.90;99.90;;;;;;4840565;29;20045;-76
2023/03/20 05:51:51;;;;;;;26.05;16.85;;;11.10;99.90;;;;;;4861049;29;20407;-72
2023/03/20 05:54:40;;;;;;;26.00;16.60;;;11.30;99.90;;;;;;4845390;29;20033;-78
2023/03/20 05:57:22;;;;;;;24.45;16.63;;;11.30;99.90;;;;;;4860226;29;20045;-77
2023/03/20 06:00:09;;;;;;;23.65;15.50;;;11.50;99.90;;;;;;4859677;29;20402;-78
2023/03/20 06:02:38;;;;;;;22.48;14.60;;;11.60;99.90;;;;;;4860634;29;20076;-78
2023/03/20 06:05:18;;;;;;;26.80;14.40;;;11.50;99.90;;;;;;4845014;29;20042;-78
2023/03/20 06:07:49;;;;;;;25.58;15.75;;;11.50;99.90;;;;;;4843922;29;20423;-79
2023/03/20 06:10:15;;;;;;;22.67;14.65;;;11.40;99.90;;;;;;4903792;28;20066;-77
2023/03/20 06:12:42;;;;;;;27.05;14.90;;;11.40;99.90;;;;;;4958914;28;20023;-78
2023/03/20 06:15:08;;;;;;;24.92;14.95;;;11.40;99.90;;;;;;4958386;28;20569;-78
2023/03/20 06:17:39;;;;;;;25.52;15.23;;;11.50;99.90;;;;;;4958419;28;20035;-74
2023/03/20 06:20:05;;;;;;;29.15;15.00;;;11.60;99.90;;;;;;4958499;28;20035;-79
2023/03/20 06:22:31;;;;;;;23.85;14.57;;;11.60;99.90;;;;;;4977581;28;20027;-76
2023/03/20 06:24:57;;;;;;;24.75;14.60;;;11.70;99.90;;;;;;4995546;28;20041;-73
2023/03/20 06:27:30;;;;;;;25.85;14.93;;;11.80;99.90;;;;;;4976952;28;20085;-78
2023/03/20 06:29:56;;;;;;;30.23;16.15;;;11.90;99.90;;;;;;4984469;28;20481;-79
2023/03/20 06:32:29;;;;;;;27.33;16.08;;;12.00;99.90;;;;;;4978122;28;20117;-78
2023/03/20 06:34:58;;;;;;;22.83;14.50;;;12.10;99.90;;;;;;4959102;28;20027;-78
2023/03/20 06:37:24;;;;;;;23.90;14.32;;;12.20;99.90;;;;;;4974304;28;20498;-78
2023/03/20 06:39:55;;;;;;;26.60;15.45;;;12.30;99.90;;;;;;4955998;28;20406;-78
2023/03/20 06:42:21;;;;;;;22.70;13.93;;;12.40;99.90;;;;;;4957345;28;20027;-75
2023/03/20 06:44:48;;;;;;;27.23;15.27;;;12.60;99.90;;;;;;4976413;28;20089;-75
2023/03/20 06:47:22;;;;;;;21.35;14.75;;;12.60;99.70;;;;;;4980630;28;20027;-74
2023/03/20 06:49:48;;;;;;;22.85;13.55;;;12.90;99.50;;;;;;4974218;28;20031;-73
2023/03/20 06:52:20;;;;;;;21.42;14.25;;;13.00;98.50;;;;;;4961067;28;20031;-78
2023/03/20 06:54:56;;;;;;;24.83;14.32;;;13.20;98.60;;;;;;4987187;28;20045;-78
2023/03/20 06:57:23;;;;;;;21.45;13.20;;;13.20;97.90;;;;;;4976997;28;20043;-76
2023/03/20 06:59:49;;;;;;;20.27;12.90;;;13.30;98.00;;;;;;4978526;28;20066;-74
2023/03/20 07:02:15;;;;;;;26.08;13.82;;;13.20;97.30;;;;;;4972726;28;20192;-77
2023/03/20 07:04:42;;;;;;;22.83;13.43;;;13.30;97.60;;;;;;4957996;28;20027;-75
2023/03/20 07:07:08;;;;;;;20.27;13.35;;;13.40;97.10;;;;;;4957872;28;20390;-77
2023/03/20 07:09:35;;;;;;;22.05;13.30;;;13.40;96.30;;;;;;4975314;28;20451;-77
2023/03/20 07:12:01;;;;;;;25.90;16.13;;;13.50;96.10;;;;;;4953917;29;20058;-77
2023/03/20 07:14:29;;;;;;;26.35;16.58;;;13.60;96.20;;;;;;4961136;28;20051;-76
2023/03/20 07:17:00;;;;;;;26.50;17.15;;;13.70;95.90;;;;;;4973650;28;20046;-76
2023/03/20 07:19:26;;;;;;;24.33;15.00;;;13.70;95.40;;;;;;4992628;28;20039;-77
2023/03/20 07:22:02;;;;;;;23.67;14.02;;;14.00;95.80;;;;;;4973684;28;20037;-76
2023/03/20 07:24:34;;;;;;;19.52;12.98;;;14.10;95.50;;;;;;4971760;28;20486;-78
2023/03/20 07:27:00;;;;;;;21.65;12.35;;;14.20;95.10;;;;;;4989785;28;20035;-78
2023/03/20 07:29:26;;;;;;;20.83;14.20;;;14.40;95.30;;;;;;4974683;28;20093;-75
2023/03/20 07:31:53;;;;;;;20.60;11.65;;;14.60;94.40;;;;;;4992265;28;20058;-76
2023/03/20 07:34:27;;;;;;;24.17;13.75;;;14.80;93.90;;;;;;4966775;28;20026;-78
2023/03/20 07:36:55;;;;;;;23.42;13.75;;;15.00;93.30;;;;;;4976244;28;20037;-77
2023/03/20 07:39:22;;;;;;;22.95;12.57;;;15.00;93.00;;;;;;4954557;28;20034;-78
2023/03/20 07:41:58;;;;;;;19.27;11.35;;;15.10;93.10;;;;;;4957483;28;20023;-77
2023/03/20 07:44:36;;;;;;;20.10;12.32;;;15.40;92.50;;;;;;4955547;28;20039;-77
2023/03/20 07:47:07;;;;;;;20.63;13.40;;;15.30;92.50;;;;;;4971658;28;20038;-77
2023/03/20 07:49:34;;;;;;;21.23;13.95;;;15.40;91.40;;;;;;4993708;28;20031;-77
2023/03/20 07:52:00;;;;;;;20.50;12.80;;;15.50;90.80;;;;;;4975526;28;20062;-77
2023/03/20 07:54:26;;;;;;;23.52;13.35;;;15.60;92.20;;;;;;4992762;28;20059;-76
2023/03/20 07:56:52;;;;;;;21.92;12.68;;;15.80;92.30;;;;;;4968625;28;20027;-76
2023/03/20 07:59:18;;;;;;;20.63;13.88;;;15.80;90.80;;;;;;4955561;28;20042;-77
2023/03/20 08:01:44;;;;;;;23.45;11.63;;;16.00;91.20;;;;;;4974253;28;20023;-78
2023/03/20 08:04:10;;;;;;;23.00;13.18;;;16.10;91.40;;;;;;4964293;28;20045;-76
2023/03/20 08:06:38;;;;;;;19.38;10.45;;;16.10;90.40;;;;;;4973805;28;20033;-78
2023/03/20 08:09:04;;;;;;;25.45;10.20;;;16.20;89.10;;;;;;4974164;28;20470;-78
2023/03/20 08:11:30;;;;;;;19.65;10.38;;;16.10;89.60;;;;;;4971841;28;20105;-77
2023/03/20 08:13:56;;;;;;;16.45;9.77;;;16.00;90.30;;;;;;4973427;28;20035;-76
2023/03/20 08:16:22;;;;;;;16.63;10.18;;;16.30;89.60;;;;;;4974117;28;20045;-74
2023/03/20 08:18:49;;;;;;;19.38;9.85;;;16.30;89.20;;;;;;4973532;28;20419;-78
2023/03/20 08:21:15;;;;;;;23.35;10.18;;;16.30;88.70;;;;;;4973852;28;20027;-77
2023/03/20 08:23:41;;;;;;;19.90;10.63;;;16.20;89.40;;;;;;4964556;28;20034;-78
2023/03/20 08:26:07;;;;;;;15.98;9.68;;;16.30;89.30;;;;;;4974175;28;20438;-77
2023/03/20 08:28:33;;;;;;;15.10;9.38;;;16.40;88.00;;;;;;4972785;28;20386;-79
2023/03/20 08:30:59;;;;;;;19.27;10.80;;;16.50;89.00;;;;;;4956049;28;20042;-77
2023/03/20 08:33:25;;;;;;;15.55;9.80;;;16.40;89.80;;;;;;4972768;28;20023;-71
2023/03/20 08:35:57;;;;;;;22.10;10.50;;;16.50;88.80;;;;;;4973979;28;20094;-75
2023/03/20 08:38:23;;;;;;;18.70;9.90;;;16.60;88.70;;;;;;4973651;28;20554;-78
2023/03/20 08:40:49;;;;;;;20.55;10.25;;;16.50;87.90;;;;;;4973329;28;20113;-76
2023/03/20 08:43:15;;;;;;;20.73;10.38;;;16.70;88.50;;;;;;4973551;28;20109;-73
2023/03/20 08:45:41;;;;;;;18.00;10.13;;;16.90;86.10;;;;;;4970393;28;20037;-75
2023/03/20 08:48:07;;;;;;;16.70;9.93;;;16.70;86.30;;;;;;4973805;28;20035;-76
2023/03/20 08:50:33;;;;;;;17.25;10.20;;;16.70;85.60;;;;;;4973059;28;20026;-78
2023/03/20 08:52:59;;;;;;;17.85;9.35;;;16.90;86.10;;;;;;4967984;28;20118;-77
2023/03/20 08:55:25;;;;;;;18.90;9.75;;;17.10;86.10;;;;;;4967663;28;20442;-76
2023/03/20 08:57:53;;;;;;;15.93;8.90;;;17.20;86.90;;;;;;4968241;28;20058;-78
2023/03/20 09:00:20;;;;;;;17.80;9.23;;;17.30;84.00;;;;;;4973490;28;20125;-77
2023/03/20 09:02:45;;;;;;;13.85;7.95;;;17.30;83.00;;;;;;4973321;28;20031;-77
2023/03/20 09:05:11;;;;;;;13.10;7.40;;;17.30;84.90;;;;;;4969505;28;20027;-78
2023/03/20 09:07:37;;;;;;;13.38;6.93;;;17.40;83.00;;;;;;4972920;28;20054;-74
2023/03/20 09:10:04;;;;;;;16.27;7.20;;;17.20;82.60;;;;;;4972635;28;20062;-77
2023/03/20 09:12:31;;;;;;;14.13;7.75;;;17.30;82.90;;;;;;4972917;28;20049;-76
2023/03/20 09:14:57;;;;;;;16.83;7.28;;;17.30;83.90;;;;;;4964635;28;20051;-76
2023/03/20 09:17:23;;;;;;;14.07;8.82;;;17.60;82.90;;;;;;4972921;28;20085;-76
2023/03/20 09:19:49;;;;;;;16.17;7.85;;;17.60;84.10;;;;;;4973018;28;20114;-77
2023/03/20 09:22:17;;;;;;;15.82;8.55;;;17.60;84.00;;;;;;4973116;28;20023;-78
2023/03/20 09:24:43;;;;;;;16.20;9.00;;;17.50;84.80;;;;;;4969601;28;20032;-76
2023/03/20 09:27:12;;;;;;;16.75;8.65;;;17.70;83.60;;;;;;4972900;28;20106;-78
2023/03/20 09:29:39;;;;;;;15.57;7.90;;;18.00;85.60;;;;;;4972905;28;20023;-78
2023/03/20 09:32:05;;;;;;;15.18;6.75;;;18.00;81.20;;;;;;4972537;28;20058;-77
2023/03/20 09:34:31;;;;;;;13.00;7.63;;;18.00;82.60;;;;;;4972672;28;20027;-77
2023/03/20 09:36:57;;;;;;;15.10;6.57;;;18.10;82.00;;;;;;4973452;28;20581;-75
2023/03/20 09:39:23;;;;;;;12.75;7.55;;;18.20;82.20;;;;;;4976911;28;20106;-77
2023/03/20 09:41:50;;;;;;;17.15;6.93;;;18.30;81.70;;;;;;4973098;28;20369;-78
2023/03/20 09:44:55;;;;;;;8.98;5.93;;;18.30;81.40;;;;;;4972512;28;20045;-73
2023/03/20 09:47:43;;;;;;;9.90;5.80;;;18.20;81.80;;;;;;4955187;28;20034;-78
2023/03/20 09:50:32;;;;;;;11.00;6.35;;;18.20;81.50;;;;;;4969592;28;20027;-78
2023/03/20 09:53:35;;;;;;;10.80;5.43;;;18.50;79.80;;;;;;4950677;28;20047;-78
2023/03/20 09:56:01;;;;;;;9.80;4.70;;;18.50;78.60;;;;;;4919908;29;20118;-77
2023/03/20 09:58:32;;;;;;;6.95;4.60;;;18.40;75.40;;;;;;4925323;29;20058;-75
2023/03/20 10:01:00;;;;;;;8.82;4.90;;;18.30;75.70;;;;;;4931825;29;20523;-77
2023/03/20 10:03:28;;;;;;;9.75;4.75;;;18.40;77.60;;;;;;4934193;29;20027;-77
2023/03/20 10:06:02;;;;;;;8.07;4.80;;;18.40;77.50;;;;;;4938357;29;20122;-77
2023/03/20 10:08:36;;;;;;;10.00;5.40;;;18.50;76.90;;;;;;4940973;29;20055;-77
2023/03/20 10:11:25;;;;;;;11.32;5.90;;;18.50;76.90;;;;;;4935664;29;20024;-73
2023/03/20 10:13:57;;;;;;;12.55;5.70;;;18.50;77.80;;;;;;4934530;29;20053;-78
2023/03/20 10:16:30;;;;;;;10.60;5.00;;;18.50;76.70;;;;;;4934204;29;20164;-78
2023/03/20 10:19:14;;;;;;;7.80;5.10;;;18.30;77.90;;;;;;4935446;29;20227;-77
2023/03/20 10:21:48;;;;;;;10.57;5.53;;;18.20;77.50;;;;;;4935505;29;20126;-77
2023/03/20 10:24:27;;;;;;;9.88;5.18;;;18.20;77.00;;;;;;4935566;29;20111;-76
2023/03/20 10:26:57;;;;;;;13.00;5.32;;;18.20;76.10;;;;;;4939551;29;20121;-78
2023/03/20 10:29:52;;;;;;;12.70;5.93;;;18.30;75.00;;;;;;4934990;29;20235;-75
2023/03/20 10:32:25;;;;;;;9.05;5.30;;;18.50;76.40;;;;;;4941655;28;20546;-78
2023/03/20 10:35:01;;;;;;;;;;;18.80;77.90;;;;;;4973265;28;20815;-79
2023/03/20 10:37:51;;;;;;;10.43;5.55;;;18.90;76.50;;;;;;4963980;28;19918;-77
2023/03/20 10:40:40;;;;;;;12.00;6.35;;;18.90;77.80;;;;;;4973235;28;20474;-76
2023/03/20 10:43:33;;;;;;;12.38;6.25;;;18.80;76.00;;;;;;4975593;28;20117;-76
2023/03/20 10:46:14;;;;;;;12.50;5.80;;;18.70;77.20;;;;;;4974752;28;20061;-76
2023/03/20 10:48:55;;;;;;;11.63;6.25;;;19.00;76.60;;;;;;4975347;28;20093;-76
2023/03/20 10:51:32;;;;;;;12.17;5.90;;;19.00;74.70;;;;;;4975013;28;20202;-75
2023/03/20 10:54:05;;;;;;;12.43;5.97;;;19.00;74.50;;;;;;4962794;28;20280;-76
2023/03/20 10:56:45;;;;;;;9.80;5.50;;;19.00;75.50;;;;;;4975200;28;20038;-76
2023/03/20 10:59:48;;;;;;;10.48;5.75;;;19.20;77.30;;;;;;4974805;28;20062;-76
2023/03/20 11:02:16;;;;;;;12.35;4.95;;;19.20;75.30;;;;;;4902144;29;20126;-76
2023/03/20 11:04:42;;;;;;;9.90;5.18;;;19.20;75.80;;;;;;4915371;29;20045;-74
2023/03/20 11:07:11;;;;;;;17.02;6.97;;;19.00;74.50;;;;;;4914824;29;20148;-75
2023/03/20 11:09:37;;;;;;;10.00;5.63;;;18.80;73.30;;;;;;4915832;29;20148;-77
2023/03/20 11:12:04;;;;;;;11.02;6.45;;;18.80;74.30;;;;;;4914962;29;20500;-77
2023/03/20 11:14:36;;;;;;;11.45;6.13;;;19.00;77.90;;;;;;4915040;29;20127;-76
2023/03/20 11:17:03;;;;;;;;;;;19.20;76.80;;;;;;4915583;29;20096;-73
2023/03/20 11:19:40;;;;;;;10.70;4.63;;;19.10;73.10;;;;;;4914471;29;19922;-76
2023/03/20 11:22:13;;;;;;;9.77;4.93;;;18.90;75.50;;;;;;4914625;29;20496;-76
2023/03/20 11:24:45;;;;;;;9.02;4.93;;;19.10;75.40;;;;;;4914922;29;20036;-71
2023/03/20 11:27:18;;;;;;;9.57;5.00;;;19.00;73.90;;;;;;4914864;29;20374;-76
2023/03/20 11:29:48;;;;;;;9.32;5.10;;;19.00;73.30;;;;;;4914672;29;20063;-76
2023/03/20 11:32:28;;;;;;;9.18;5.03;;;19.00;74.70;;;;;;4915193;29;20163;-78
2023/03/20 11:34:56;;;;;;;10.07;5.25;;;19.20;74.90;;;;;;4915344;29;20504;-77
2023/03/20 11:37:29;;;;;;;9.77;4.50;;;19.30;74.60;;;;;;4940424;28;20026;-75
2023/03/20 11:39:57;;;;;;;8.88;3.90;;;19.30;74.20;;;;;;4994041;28;20441;-77
2023/03/20 11:42:25;;;;;;;7.95;3.95;;;19.50;75.40;;;;;;4993686;28;20101;-77
2023/03/20 11:45:05;;;;;;;8.95;4.18;;;19.50;74.10;;;;;;4994324;28;20355;-74
2023/03/20 11:47:34;;;;;;;7.68;4.60;;;19.50;72.70;;;;;;4994242;28;20118;-73
2023/03/20 11:50:03;;;;;;;9.27;4.10;;;19.40;74.40;;;;;;4981864;28;20015;-76
2023/03/20 11:52:38;;;;;;;7.35;4.10;;;19.40;74.20;;;;;;4974256;28;20081;-77
2023/03/20 11:55:20;;;;;;;11.00;4.78;;;19.50;75.50;;;;;;4973796;28;20026;-77
2023/03/20 11:57:47;;;;;;;8.82;4.45;;;19.60;74.30;;;;;;4973467;28;20109;-76
2023/03/20 12:00:23;;;;;;;8.55;4.28;;;19.60;72.60;;;;;;4974427;28;20372;-76
2023/03/20 12:02:49;;;;;;;9.40;4.32;;;19.70;75.00;;;;;;4974005;28;20042;-77
2023/03/20 12:05:32;;;;;;;7.85;4.78;;;19.70;72.50;;;;;;4974347;28;20101;-77
2023/03/20 12:08:23;;;;;;;9.23;5.05;;;19.50;73.80;;;;;;4993498;28;20125;-77
2023/03/20 12:10:58;;;;;;;9.18;3.95;;;19.50;74.40;;;;;;4961290;28;20109;-77
2023/03/20 12:13:29;;;;;;;9.48;4.38;;;19.50;72.70;;;;;;4973089;28;20067;-77
2023/03/20 12:16:04;;;;;;;8.02;3.75;;;19.50;72.60;;;;;;4993271;28;20065;-77
2023/03/20 12:18:29;;;;;;;8.43;4.18;;;19.50;72.10;;;;;;4992767;28;20026;-74
2023/03/20 12:21:07;;;;;;;6.20;3.45;;;19.70;74.60;;;;;;4983614;28;20085;-78
2023/03/20 12:23:40;;;;;;;7.00;3.72;;;19.60;74.40;;;;;;4974731;28;20031;-73
2023/03/20 12:26:19;;;;;;;6.90;4.53;;;19.70;75.40;;;;;;4973215;28;20498;-78
2023/03/20 12:28:45;;;;;;;8.85;4.78;;;19.60;73.50;;;;;;4974391;28;20030;-77
2023/03/20 12:31:23;;;;;;;10.07;3.95;;;19.60;73.40;;;;;;4973399;28;20022;-77
2023/03/20 12:34:01;;;;;;;7.45;3.75;;;19.50;73.20;;;;;;4973810;28;20111;-77
2023/03/20 12:36:36;;;;;;;5.82;3.50;;;19.70;74.00;;;;;;4973566;28;20034;-77
2023/03/20 12:39:05;;;;;;;7.38;4.05;;;19.70;72.30;;;;;;4973277;28;20463;-77
2023/03/20 12:41:38;;;;;;;8.45;3.53;;;19.80;74.50;;;;;;4973636;28;20035;-77
2023/03/20 12:44:19;;;;;;;9.20;4.05;;;19.80;71.40;;;;;;4992457;28;20386;-77
2023/03/20 12:47:11;;;;;;;8.75;3.58;;;19.80;72.00;;;;;;4992978;28;20108;-75
2023/03/20 12:49:39;;;;;;;8.48;3.30;;;19.90;71.60;;;;;;4973026;28;20475;-76
2023/03/20 12:52:44;;;;;;;6.18;3.40;;;19.90;72.50;;;;;;4973687;28;20031;-76
2023/03/20 12:55:59;;;;;;;5.85;3.22;;;19.90;71.30;;;;;;4946923;28;20039;-77
2023/03/20 12:58:34;;;;;;;7.57;3.25;;;20.00;74.20;;;;;;4887403;29;20037;-77
2023/03/20 13:01:23;;;;;;;6.18;3.35;;;20.00;72.40;;;;;;4894419;29;20040;-74
2023/03/20 13:03:52;;;;;;;10.35;3.40;;;20.10;71.40;;;;;;4894430;29;20072;-79
2023/03/20 13:06:20;;;;;;;6.78;3.45;;;20.10;72.00;;;;;;4894976;29;20032;-76